Time;durP1;ratioP1;P1;durP2;ratioP2;P2;SDS_P1;SDS_P2;PMS_P1;PMS_P2;Temp;Humidity;BMP_temperature;BMP_pressure;BME280_temperature;BME280_humidity;BME280_pressure;Samples;Min_cycle;Max_cycle;Signal;HPM_P1;HPM_P2
2021/12/19 00:00:29;;;;;;;3.33;2.30;;;;;;;3.68;79.62;99545.88;2552379;29;20116;-80
2021/12/19 00:10:08;;;;;;;3.33;1.90;;;;;;;3.79;79.27;99546.94;2545815;29;20639;-80
2021/12/19 00:11:26;;;;;;;1.70;1.33;;;;;;;3.81;79.18;99537.47;2535843;29;20130;-81
2021/12/19 00:12:42;;;;;;;2.70;1.92;;;;;;;3.77;79.24;99534.81;2546856;29;20059;-80
2021/12/19 00:13:58;;;;;;;3.75;2.13;;;;;;;3.79;79.32;99543.47;2550984;29;20894;-83
2021/12/19 00:15:14;;;;;;;4.50;2.03;;;;;;;3.79;79.20;99541.78;2550481;29;20056;-82
2021/12/19 00:16:30;;;;;;;4.32;2.47;;;;;;;3.77;79.56;99537.41;2550664;28;20052;-81
2021/12/19 00:17:45;;;;;;;4.68;2.40;;;;;;;3.81;79.35;99532.28;2552838;28;20142;-82
2021/12/19 00:19:02;;;;;;;4.15;2.40;;;;;;;3.80;79.25;99530.56;2551569;29;20138;-82
2021/12/19 00:20:18;;;;;;;4.22;2.60;;;;;;;3.77;79.36;99535.69;2552768;29;20059;-80
2021/12/19 00:21:35;;;;;;;3.28;2.10;;;;;;;3.81;79.35;99532.28;2552224;29;20059;-79
2021/12/19 00:22:51;;;;;;;5.35;2.17;;;;;;;3.85;79.01;99527.16;2552184;29;20049;-81
2021/12/19 00:24:07;;;;;;;4.68;2.47;;;;;;;3.80;79.30;99530.56;2550447;29;20059;-80
2021/12/19 00:25:23;;;;;;;6.07;2.80;;;;;;;3.84;79.30;99528.00;2550830;29;20119;-81
2021/12/19 00:26:39;;;;;;;5.28;2.80;;;;;;;3.87;78.89;99528.06;2552125;29;20525;-83
2021/12/19 00:27:54;;;;;;;4.78;2.47;;;;;;;3.91;78.83;99524.66;2552362;29;20071;-83
2021/12/19 00:29:10;;;;;;;4.80;2.30;;;;;;;3.86;78.82;99523.72;2550053;29;20062;-80
2021/12/19 00:30:26;;;;;;;4.50;2.33;;;;;;;3.87;78.80;99516.00;2551466;29;20110;-80
2021/12/19 00:31:45;;;;;;;5.32;2.67;;;;;;;3.92;79.05;99514.34;2550285;29;20320;-83
2021/12/19 00:33:01;;;;;;;4.13;2.30;;;;;;;3.94;78.92;99517.81;2550603;29;20656;-80
2021/12/19 00:34:17;;;;;;;4.20;2.22;;;;;;;3.94;78.47;99511.78;2551059;29;20056;-80
2021/12/19 00:35:33;;;;;;;3.67;2.10;;;;;;;3.91;78.95;99516.88;2553277;29;20056;-81
2021/12/19 00:36:48;;;;;;;2.78;1.90;;;;;;;3.88;79.18;99514.25;2551670;29;20055;-80
2021/12/19 00:38:04;;;;;;;3.53;2.10;;;;;;;3.79;79.33;99513.28;2550302;29;20050;-85
2021/12/19 00:39:20;;;;;;;3.30;2.10;;;;;;;3.80;79.49;99516.72;2552301;29;20138;-82
2021/12/19 00:40:37;;;;;;;3.78;2.38;;;;;;;3.94;78.91;99511.78;2552183;29;20083;-80
2021/12/19 00:41:53;;;;;;;3.90;2.22;;;;;;;4.00;78.34;99511.00;2552745;29;20900;-79
2021/12/19 00:43:12;;;;;;;4.20;2.53;;;;;;;4.01;78.58;99513.59;2551884;29;20047;-79
2021/12/19 00:44:29;;;;;;;4.65;2.38;;;;;;;3.92;78.39;99503.97;2551022;29;20102;-81
2021/12/19 00:45:47;;;;;;;3.83;2.17;;;;;;;3.94;78.66;99506.59;2552596;29;20056;-80
2021/12/19 00:47:07;;;;;;;4.13;2.40;;;;;;;3.95;78.84;99497.97;2550000;29;20051;-80
2021/12/19 00:48:23;;;;;;;4.13;2.05;;;;;;;3.92;78.88;99498.78;2550609;29;20962;-82
2021/12/19 00:49:39;;;;;;;4.63;2.42;;;;;;;3.90;79.12;99504.78;2551885;29;20137;-80
2021/12/19 00:50:54;;;;;;;3.58;2.28;;;;;;;3.87;78.93;99495.25;2550946;28;20614;-80
2021/12/19 00:52:10;;;;;;;4.80;2.25;;;;;;;3.83;79.07;99505.53;2551612;29;20051;-80
2021/12/19 00:53:26;;;;;;;4.13;2.33;;;;;;;3.86;79.20;99503.00;2553392;29;20074;-80
2021/12/19 00:54:42;;;;;;;3.88;2.10;;;;;;;3.90;79.26;99503.06;2551310;29;20676;-79
2021/12/19 00:55:57;;;;;;;4.90;2.30;;;;;;;3.92;78.80;99500.53;2551803;28;20058;-80
2021/12/19 00:57:13;;;;;;;3.55;2.10;;;;;;;3.91;78.74;99502.22;2551159;29;20211;-79
2021/12/19 00:58:29;;;;;;;3.33;2.20;;;;;;;3.84;78.72;99502.09;2550306;29;20079;-80
2021/12/19 00:59:44;;;;;;;3.63;2.38;;;;;;;3.86;79.29;99498.69;2552199;29;20111;-79
2021/12/19 01:01:03;;;;;;;5.07;1.85;;;;;;;3.81;79.42;99496.03;2552898;28;20521;-80
2021/12/19 01:02:18;;;;;;;3.58;2.33;;;;;;;3.77;79.63;99491.66;2551033;29;20099;-79
2021/12/19 01:03:35;;;;;;;4.20;2.30;;;;;;;3.92;78.95;99501.38;2550799;29;20055;-81
2021/12/19 01:04:51;;;;;;;4.65;2.28;;;;;;;3.95;79.08;99493.66;2549692;29;20043;-80
2021/12/19 01:06:07;;;;;;;2.72;1.70;;;;;;;4.05;78.05;99489.50;2550274;29;20254;-82
2021/12/19 01:07:22;;;;;;;4.40;2.00;;;;;;;4.00;78.49;99485.94;2551484;29;20422;-80
2021/12/19 01:08:38;;;;;;;4.07;2.33;;;;;;;4.09;78.16;99500.75;2552644;28;20654;-80
2021/12/19 01:09:53;;;;;;;3.88;1.90;;;;;;;4.06;78.43;99503.31;2551250;28;20094;-80
2021/12/19 01:11:09;;;;;;;4.47;2.30;;;;;;;3.96;78.72;99497.97;2553095;29;20062;-79
2021/12/19 01:12:26;;;;;;;3.50;2.20;;;;;;;3.89;79.15;99498.75;2550588;29;20047;-79
2021/12/19 01:13:41;;;;;;;2.75;1.88;;;;;;;3.87;79.25;99490.09;2549564;29;20051;-80
2021/12/19 01:14:57;;;;;;;5.57;2.17;;;;;;;3.77;79.27;99491.66;2550076;29;20056;-80
2021/12/19 01:16:15;;;;;;;3.67;2.13;;;;;;;3.76;79.71;99489.88;2550859;29;20552;-80
2021/12/19 01:17:31;;;;;;;4.55;2.28;;;;;;;3.76;79.84;99491.63;2551290;29;20078;-79
2021/12/19 01:18:47;;;;;;;4.20;2.25;;;;;;;3.68;79.98;99488.91;2553221;29;20051;-80
2021/12/19 01:20:11;;;;;;;3.42;2.17;;;;;;;3.64;80.36;99490.56;2550494;29;20051;-80
2021/12/19 01:21:27;;;;;;;3.25;2.33;;;;;;;3.67;80.27;99487.16;2551036;29;20925;-83
2021/12/19 01:22:42;;;;;;;3.60;2.53;;;;;;;3.65;80.46;99487.13;2552034;29;20106;-80
2021/12/19 01:23:58;;;;;;;5.55;2.45;;;;;;;3.72;80.21;99485.50;2550042;29;20052;-80
2021/12/19 01:25:14;;;;;;;4.43;2.47;;;;;;;3.76;79.93;99492.47;2552455;29;20058;-80
2021/12/19 01:26:30;;;;;;;3.13;2.08;;;;;;;3.82;79.96;99491.69;2550392;28;20043;-80
2021/12/19 01:27:46;;;;;;;4.40;2.30;;;;;;;3.84;79.84;99478.78;2550898;29;20051;-80
2021/12/19 01:29:02;;;;;;;5.43;2.67;;;;;;;3.83;79.75;99479.63;2552064;29;20043;-80
2021/12/19 01:30:18;;;;;;;3.70;2.15;;;;;;;3.81;79.58;99477.91;2551818;29;20481;-80
2021/12/19 01:31:33;;;;;;;4.68;2.65;;;;;;;3.92;79.36;99477.22;2550683;28;20058;-79
2021/12/19 01:32:49;;;;;;;3.08;2.30;;;;;;;3.91;79.41;99475.44;2551860;29;20419;-80
2021/12/19 01:34:05;;;;;;;3.95;2.30;;;;;;;3.81;79.46;99467.53;2551681;29;20106;-79
2021/12/19 01:35:23;;;;;;;6.97;2.70;;;;;;;3.74;79.84;99463.09;2549695;29;20052;-80
2021/12/19 01:36:43;;;;;;;3.95;2.30;;;;;;;3.69;80.14;99462.16;2551461;29;20055;-81
2021/12/19 01:37:59;;;;;;;6.13;2.53;;;;;;;3.64;80.43;99459.47;2549784;29;20052;-79
2021/12/19 01:39:15;;;;;;;3.72;2.28;;;;;;;3.63;80.48;99454.25;2549965;28;20153;-80
2021/12/19 01:40:31;;;;;;;4.13;2.60;;;;;;;3.60;80.83;99449.03;2549489;28;20173;-80
2021/12/19 01:41:53;;;;;;;4.97;2.50;;;;;;;3.67;80.60;99451.75;2551427;29;20051;-81
2021/12/19 01:43:09;;;;;;;4.45;2.60;;;;;;;3.77;79.99;99450.22;2550723;29;20053;-82
2021/12/19 01:44:26;;;;;;;4.55;2.55;;;;;;;3.79;80.11;99445.91;2551874;28;20066;-81
2021/12/19 01:45:41;;;;;;;2.90;2.10;;;;;;;3.87;79.96;99443.44;2551845;29;20051;-80
2021/12/19 01:46:59;;;;;;;5.40;2.60;;;;;;;3.97;79.74;99447.03;2551505;29;20398;-82
2021/12/19 01:48:14;;;;;;;4.32;2.45;;;;;;;3.92;79.27;99446.97;2549230;29;20055;-81
2021/12/19 01:49:31;;;;;;;3.85;2.63;;;;;;;3.93;79.53;99443.53;2549950;28;20506;-80
2021/12/19 01:50:47;;;;;;;4.80;2.70;;;;;;;3.86;79.75;99439.13;2551960;29;20056;-80
2021/12/19 01:52:04;;;;;;;3.70;2.10;;;;;;;3.94;79.71;99439.22;2549817;29;20059;-80
2021/12/19 01:53:20;;;;;;;4.00;2.25;;;;;;;3.94;79.61;99436.63;2550888;29;20052;-79
2021/12/19 01:54:35;;;;;;;5.90;2.10;;;;;;;3.92;79.53;99421.06;2552739;28;20063;-82
2021/12/19 01:55:52;;;;;;;3.50;2.35;;;;;;;3.91;79.73;99418.44;2549601;29;20051;-79
2021/12/19 01:57:08;;;;;;;3.13;2.05;;;;;;;3.90;79.81;99416.69;2549641;29;20118;-80
2021/12/19 01:58:24;;;;;;;3.17;2.15;;;;;;;3.87;79.80;99414.94;2550979;29;20130;-80
2021/12/19 01:59:39;;;;;;;3.92;2.08;;;;;;;3.93;79.68;99420.22;2550814;28;20150;-79
2021/12/19 02:00:56;;;;;;;4.57;2.10;;;;;;;3.88;79.88;99418.41;2552857;29;20058;-80
2021/12/19 02:02:12;;;;;;;3.10;2.30;;;;;;;4.01;79.27;99416.88;2549641;29;20067;-80
2021/12/19 02:03:28;;;;;;;3.65;2.10;;;;;;;3.95;79.56;99420.25;2549760;29;20043;-80
2021/12/19 02:04:43;;;;;;;3.22;2.15;;;;;;;3.93;79.55;99419.34;2551813;29;20055;-80
2021/12/19 02:05:59;;;;;;;4.60;2.20;;;;;;;3.91;79.65;99428.78;2551176;29;20143;-80
2021/12/19 02:07:15;;;;;;;3.40;1.83;;;;;;;3.83;79.81;99426.09;2551069;29;20920;-81
2021/12/19 02:08:31;;;;;;;3.42;1.92;;;;;;;3.78;80.15;99426.06;2553130;29;20051;-80
2021/12/19 02:09:46;;;;;;;3.83;2.30;;;;;;;3.79;80.45;99416.53;2551647;29;20051;-83
2021/12/19 02:11:02;;;;;;;4.35;2.50;;;;;;;3.73;80.27;99414.72;2551261;29;20106;-80
2021/12/19 02:12:18;;;;;;;2.70;1.95;;;;;;;3.73;80.57;99421.66;2552688;28;20078;-81
2021/12/19 02:13:34;;;;;;;3.20;1.95;;;;;;;3.76;80.15;99414.75;2551201;29;20051;-79
2021/12/19 02:14:49;;;;;;;3.50;2.08;;;;;;;3.75;80.28;99414.75;2550248;29;20047;-81
2021/12/19 02:16:05;;;;;;;4.30;2.60;;;;;;;3.68;80.57;99412.06;2551173;28;20051;-81
2021/12/19 02:17:21;;;;;;;2.50;1.80;;;;;;;3.65;80.69;99406.84;2549542;29;20446;-81
2021/12/19 02:18:36;;;;;;;2.65;1.88;;;;;;;3.61;81.04;99402.47;2550822;29;20862;-81
2021/12/19 02:19:57;;;;;;;5.60;2.13;;;;;;;3.66;81.03;99407.72;2550195;28;20502;-81
2021/12/19 02:21:12;;;;;;;3.60;1.90;;;;;;;3.68;80.71;99406.03;2550224;29;20051;-85
2021/12/19 02:22:28;;;;;;;4.35;1.98;;;;;;;3.68;80.49;99401.69;2552390;28;20130;-80
2021/12/19 02:23:44;;;;;;;4.15;2.60;;;;;;;3.67;80.91;99399.97;2551279;29;20044;-79
2021/12/19 02:24:59;;;;;;;3.85;2.00;;;;;;;3.67;80.56;99405.13;2550403;29;20598;-84
2021/12/19 02:26:15;;;;;;;3.50;1.98;;;;;;;3.64;80.99;99404.25;2550954;29;20055;-80
2021/12/19 02:27:31;;;;;;;3.40;1.80;;;;;;;3.65;80.99;99400.81;2549027;29;20083;-80
2021/12/19 02:28:47;;;;;;;4.90;2.00;;;;;;;3.60;80.97;99398.13;2551130;29;20387;-80
2021/12/19 02:30:07;;;;;;;5.95;2.15;;;;;;;3.57;81.30;99395.50;2551148;28;20571;-79
2021/12/19 02:31:23;;;;;;;2.80;1.85;;;;;;;3.57;81.14;99397.22;2549939;29;20055;-79
2021/12/19 02:32:41;;;;;;;5.35;2.10;;;;;;;3.63;81.17;99394.69;2549649;29;20066;-80
2021/12/19 02:34:16;;;;;;;4.07;2.00;;;;;;;3.69;81.02;99389.63;2551433;29;20467;-84
2021/12/19 02:35:34;;;;;;;3.92;2.03;;;;;;;3.84;80.48;99388.13;2549976;29;20155;-79
2021/12/19 02:36:59;;;;;;;3.20;1.85;;;;;;;3.88;79.98;99382.13;2551717;28;20663;-80
2021/12/19 02:48:42;;;;;;;3.83;1.98;;;;;;;4.23;78.77;99389.53;2550676;29;20606;-81
2021/12/19 02:49:57;;;;;;;3.28;1.60;;;;;;;4.27;78.65;99375.75;2551784;29;20055;-84
2021/12/19 02:51:13;;;;;;;5.32;2.28;;;;;;;4.30;78.43;99380.09;2552000;29;20059;-79
2021/12/19 02:52:29;;;;;;;3.15;1.90;;;;;;;4.31;78.29;99371.47;2548864;28;20059;-79
2021/12/19 02:53:45;;;;;;;4.45;1.90;;;;;;;4.35;78.01;99363.75;2551371;29;20062;-80
2021/12/19 02:55:02;;;;;;;3.40;1.60;;;;;;;4.38;77.99;99368.09;2554443;28;20070;-80
2021/12/19 02:56:19;;;;;;;2.60;1.80;;;;;;;4.36;78.24;99365.50;2551902;29;20387;-81
2021/12/19 02:57:36;;;;;;;3.20;2.08;;;;;;;4.36;78.19;99372.41;2551680;29;20494;-80
2021/12/19 02:58:52;;;;;;;3.08;2.20;;;;;;;4.34;78.05;99372.41;2552920;29;20176;-80
2021/12/19 03:00:11;;;;;;;2.88;1.55;;;;;;;4.30;78.47;99372.34;2552091;29;20502;-80
2021/12/19 03:01:26;;;;;;;5.38;2.22;;;;;;;4.29;78.55;99368.84;2552271;29;20059;-80
2021/12/19 03:02:42;;;;;;;2.53;1.70;;;;;;;4.31;78.42;99372.31;2554555;29;20051;-79
2021/12/19 03:03:58;;;;;;;2.22;1.60;;;;;;;4.32;78.16;99360.25;2553927;29;20056;-80
2021/12/19 03:05:14;;;;;;;2.75;1.83;;;;;;;4.34;77.93;99369.81;2553803;28;20058;-80
2021/12/19 03:06:29;;;;;;;4.63;2.25;;;;;;;4.34;78.07;99362.03;2553382;29;20648;-79
2021/12/19 03:07:45;;;;;;;3.28;2.10;;;;;;;4.35;78.22;99355.09;2552249;29;20090;-80
2021/12/19 03:09:06;;;;;;;2.75;1.48;;;;;;;4.36;77.98;99360.31;2553751;29;20145;-80
2021/12/19 03:18:12;;;;;;;3.00;1.92;;;;;;;4.31;77.73;99335.19;2551798;29;20149;-81
2021/12/19 03:19:29;;;;;;;3.83;2.00;;;;;;;4.21;77.80;99332.47;2552182;29;20052;-80
2021/12/19 03:20:45;;;;;;;3.67;2.30;;;;;;;4.23;78.21;99335.09;2550917;29;20058;-80
2021/12/19 03:22:01;;;;;;;6.50;2.40;;;;;;;4.16;78.31;99330.66;2551294;29;20457;-81
2021/12/19 03:23:16;;;;;;;3.58;2.20;;;;;;;4.20;77.87;99327.28;2552587;29;20055;-81
2021/12/19 03:24:32;;;;;;;4.22;2.33;;;;;;;4.27;77.83;99333.41;2554195;29;20478;-80
2021/12/19 03:25:48;;;;;;;3.22;1.85;;;;;;;4.25;78.11;99333.38;2552633;29;20115;-80
2021/12/19 03:27:04;;;;;;;4.90;2.38;;;;;;;4.21;77.94;99334.22;2553604;29;20530;-81
2021/12/19 03:28:20;;;;;;;3.42;1.80;;;;;;;4.20;78.28;99332.47;2551709;29;20389;-80
2021/12/19 03:29:35;;;;;;;3.33;2.28;;;;;;;4.24;78.06;99329.06;2551948;28;20058;-80
2021/12/19 03:30:51;;;;;;;4.13;2.20;;;;;;;4.22;77.99;99325.56;2552544;29;20075;-81
2021/12/19 03:32:06;;;;;;;2.97;1.85;;;;;;;4.20;77.91;99328.13;2553646;29;20314;-81
2021/12/19 03:33:22;;;;;;;4.45;2.28;;;;;;;4.24;78.14;99329.06;2551755;29;20048;-80
2021/12/19 03:34:39;;;;;;;3.60;1.77;;;;;;;4.13;78.30;99323.75;2554121;29;20051;-81
2021/12/19 03:35:55;;;;;;;2.67;1.95;;;;;;;4.17;78.14;99324.63;2551230;29;20059;-84
2021/12/19 03:37:11;;;;;;;3.20;2.10;;;;;;;4.14;78.01;99317.72;2552651;29;20375;-80
2021/12/19 03:38:26;;;;;;;3.58;2.20;;;;;;;4.10;78.05;99314.22;2554158;28;20047;-80
2021/12/19 03:39:56;;;;;;;4.32;1.90;;;;;;;4.12;78.26;99314.22;2552563;29;20056;-79
2021/12/19 03:42:30;;;;;;;3.08;2.17;;;;;;;4.13;78.10;99304.72;2552265;29;20063;-79
2021/12/19 03:43:46;;;;;;;2.55;2.08;;;;;;;4.10;78.11;99303.84;2550664;29;20066;-79
2021/12/19 03:45:03;;;;;;;4.07;2.00;;;;;;;4.13;77.71;99307.31;2552507;29;20086;-81
2021/12/19 03:46:19;;;;;;;3.00;2.15;;;;;;;4.08;78.19;99308.13;2551348;29;20055;-80
2021/12/19 03:47:36;;;;;;;3.67;2.40;;;;;;;4.03;78.13;99299.41;2552343;29;20328;-80
2021/12/19 03:48:51;;;;;;;6.93;2.20;;;;;;;4.00;78.16;99303.72;2553877;29;20868;-79
2021/12/19 03:50:09;;;;;;;4.15;2.08;;;;;;;4.04;78.06;99302.91;2551727;29;20094;-80
2021/12/19 03:51:25;;;;;;;5.05;2.63;;;;;;;4.00;77.89;99307.16;2551734;29;20218;-79
2021/12/19 03:52:41;;;;;;;3.92;2.30;;;;;;;3.90;78.33;99307.88;2553407;29;20453;-79
2021/12/19 03:53:57;;;;;;;3.00;2.22;;;;;;;3.87;78.35;99307.84;2552491;29;20051;-84
2021/12/19 03:55:13;;;;;;;4.43;2.20;;;;;;;3.88;78.45;99307.00;2551317;29;20054;-81
2021/12/19 03:56:29;;;;;;;3.42;2.08;;;;;;;3.92;78.69;99311.38;2552793;29;20490;-81
2021/12/19 03:57:45;;;;;;;3.38;2.20;;;;;;;3.87;78.23;99307.84;2550710;29;20056;-81
2021/12/19 03:59:01;;;;;;;3.63;1.92;;;;;;;3.91;78.18;99307.03;2553398;29;20540;-80
2021/12/19 04:00:23;;;;;;;3.92;2.17;;;;;;;3.81;78.19;99296.56;2552799;28;20201;-80
2021/12/19 04:01:42;;;;;;;3.30;1.80;;;;;;;3.76;78.61;99293.03;2551718;29;20139;-79
2021/12/19 04:03:03;;;;;;;4.05;2.60;;;;;;;3.71;78.55;99283.47;2551432;29;20098;-82
2021/12/19 04:04:19;;;;;;;3.72;2.17;;;;;;;3.72;78.27;99285.22;2551511;29;20495;-79
2021/12/19 04:05:38;;;;;;;3.58;1.98;;;;;;;3.65;78.34;99292.03;2550717;29;20047;-81
2021/12/19 04:06:54;;;;;;;3.58;2.20;;;;;;;3.60;78.44;99286.78;2553101;29;20118;-81
2021/12/19 04:08:10;;;;;;;3.90;2.28;;;;;;;3.50;78.60;99285.78;2552259;29;20907;-79
2021/12/19 04:09:26;;;;;;;3.08;2.05;;;;;;;3.40;79.16;99281.31;2551259;28;20056;-80
2021/12/19 04:10:41;;;;;;;4.97;1.98;;;;;;;3.37;79.03;99276.97;2552849;29;20067;-85
2021/12/19 04:11:57;;;;;;;3.53;2.30;;;;;;;3.35;79.18;99277.78;2551175;29;20406;-80
2021/12/19 04:13:15;;;;;;;3.35;2.10;;;;;;;3.34;79.14;99276.03;2552363;29;20931;-80
2021/12/19 04:14:30;;;;;;;5.05;1.33;;;;;;;3.31;79.85;99265.66;2551622;29;20047;-80
2021/12/19 04:15:48;;;;;;;2.75;1.95;;;;;;;3.24;79.82;99267.28;2553877;29;20146;-81
2021/12/19 04:17:03;;;;;;;4.53;2.10;;;;;;;3.20;79.76;99263.75;2551235;29;20146;-80
2021/12/19 04:18:19;;;;;;;4.07;2.40;;;;;;;3.15;79.61;99265.41;2552260;28;20134;-80
2021/12/19 04:19:35;;;;;;;3.72;2.00;;;;;;;3.10;79.98;99259.31;2551081;29;20469;-80
2021/12/19 04:20:51;;;;;;;4.35;2.40;;;;;;;3.04;80.08;99252.31;2553704;28;20502;-81
2021/12/19 04:22:06;;;;;;;3.50;2.28;;;;;;;3.05;80.23;99256.66;2551892;29;20101;-79
2021/12/19 04:23:22;;;;;;;3.13;2.20;;;;;;;3.00;80.13;99257.44;2551367;29;20633;-81
2021/12/19 04:24:38;;;;;;;3.58;2.47;;;;;;;2.98;80.22;99254.81;2551756;29;20392;-79
2021/12/19 04:25:53;;;;;;;2.83;2.22;;;;;;;2.92;80.75;99255.56;2551429;29;20138;-80
2021/12/19 04:27:09;;;;;;;14.85;3.35;;;;;;;2.97;80.52;99255.66;2550814;28;20142;-79
2021/12/19 04:28:25;;;;;;;3.72;2.50;;;;;;;3.01;80.36;99257.47;2551227;28;20399;-80
2021/12/19 04:29:40;;;;;;;5.25;2.17;;;;;;;2.92;80.25;99252.97;2550388;29;20055;-84
2021/12/19 04:30:58;;;;;;;2.65;2.13;;;;;;;2.85;80.29;99250.28;2550578;28;20506;-80
2021/12/19 04:32:14;;;;;;;3.13;2.03;;;;;;;2.78;80.81;99244.13;2554157;29;20098;-79
2021/12/19 04:33:32;;;;;;;3.67;2.38;;;;;;;2.82;80.62;99248.53;2552445;29;20059;-80
2021/12/19 04:34:48;;;;;;;4.18;2.50;;;;;;;2.80;80.43;99245.06;2550893;29;20051;-79
2021/12/19 04:36:06;;;;;;;3.05;2.03;;;;;;;2.81;80.71;99247.66;2553515;28;20150;-80
2021/12/19 04:38:31;;;;;;;3.22;2.10;;;;;;;2.76;80.89;99240.66;2551120;29;20057;-80
2021/12/19 04:40:42;;;;;;;4.25;2.47;;;;;;;2.77;80.99;99221.72;2552588;29;20056;-79
2021/12/19 04:56:23;;;;;;;4.15;2.30;;;;;;;2.72;81.36;99195.75;2550968;29;20047;-80
2021/12/19 04:58:35;;;;;;;4.47;2.58;;;;;;;2.62;81.06;99192.16;2549638;29;20142;-80
2021/12/19 05:00:06;;;;;;;3.35;2.28;;;;;;;2.54;81.45;99188.59;2550910;29;20047;-84
2021/12/19 05:01:42;;;;;;;5.55;2.40;;;;;;;2.57;81.46;99183.47;2551071;29;20422;-80
2021/12/19 05:03:04;;;;;;;4.20;2.30;;;;;;;2.64;80.95;99182.72;2551001;28;20062;-80
2021/12/19 05:15:02;;;;;;;4.05;2.30;;;;;;;2.59;80.98;99176.63;2551211;28;20199;-80
2021/12/19 05:16:19;;;;;;;5.03;2.38;;;;;;;2.60;81.39;99174.91;2551412;29;20080;-79
2021/12/19 05:17:35;;;;;;;5.15;2.85;;;;;;;2.58;81.21;99174.88;2551631;29;20058;-79
2021/12/19 05:18:53;;;;;;;4.68;2.40;;;;;;;2.62;81.48;99180.97;2549744;29;20048;-80
2021/12/19 05:20:20;;;;;;;4.55;2.50;;;;;;;2.66;81.20;99185.34;2551214;28;20063;-81
2021/12/19 05:21:39;;;;;;;4.78;2.97;;;;;;;2.57;81.38;99183.47;2550869;29;20427;-80
2021/12/19 05:23:09;;;;;;;4.25;2.25;;;;;;;2.57;81.60;99185.19;2550830;29;20079;-80
2021/12/19 05:25:53;;;;;;;3.70;2.58;;;;;;;2.65;81.27;99187.06;2551141;29;20064;-80
2021/12/19 05:27:10;;;;;;;4.82;2.53;;;;;;;2.68;81.00;99188.81;2550099;29;20051;-83
2021/12/19 05:28:26;;;;;;;4.63;2.83;;;;;;;2.63;81.13;99188.72;2551027;29;20058;-80
2021/12/19 05:29:42;;;;;;;4.38;2.47;;;;;;;2.65;80.67;99186.19;2549331;29;20055;-80
2021/12/19 05:30:57;;;;;;;5.93;2.67;;;;;;;2.60;80.94;99180.94;2550143;29;20051;-79
2021/12/19 05:32:13;;;;;;;3.95;2.45;;;;;;;2.57;80.86;99183.47;2549717;29;20052;-80
2021/12/19 05:33:29;;;;;;;4.30;2.75;;;;;;;2.59;81.26;99180.94;2551877;29;20134;-80
2021/12/19 05:34:44;;;;;;;3.70;2.22;;;;;;;2.62;81.30;99186.16;2551749;28;20133;-80
2021/12/19 05:45:14;;;;;;;4.15;2.00;;;;;;;2.67;80.97;99166.41;2550667;29;20055;-82
2021/12/19 05:46:30;;;;;;;;;;;;;;;2.68;80.66;99160.38;2549863;29;20118;-80
2021/12/19 05:47:49;;;;;;;4.70;2.45;;;;;;;2.65;80.88;99145.72;2549628;29;19973;-81
2021/12/19 05:49:06;;;;;;;4.90;2.65;;;;;;;2.65;80.58;99145.72;2551365;29;20078;-82
2021/12/19 05:50:24;;;;;;;5.05;2.08;;;;;;;2.69;81.07;99141.44;2551167;29;20051;-80
2021/12/19 05:51:39;;;;;;;7.30;2.90;;;;;;;2.71;80.79;99142.31;2549526;29;20210;-80
2021/12/19 05:52:55;;;;;;;3.45;2.20;;;;;;;2.73;80.84;99142.34;2550696;29;20126;-80
2021/12/19 05:54:11;;;;;;;3.95;2.20;;;;;;;2.65;80.59;99137.94;2550756;29;20146;-83
2021/12/19 05:55:26;;;;;;;6.22;2.90;;;;;;;2.63;80.77;99142.19;2549225;29;20078;-81
2021/12/19 05:56:43;;;;;;;3.63;2.45;;;;;;;2.59;81.05;99139.56;2549804;29;20154;-81
2021/12/19 05:57:58;;;;;;;4.22;2.63;;;;;;;2.62;80.83;99137.03;2548805;29;20074;-80
2021/12/19 05:59:14;;;;;;;5.03;2.25;;;;;;;2.68;80.94;99144.88;2549644;29;20055;-80
2021/12/19 06:00:30;;;;;;;3.95;2.08;;;;;;;2.71;80.91;99141.47;2549815;28;20052;-80
2021/12/19 06:01:46;;;;;;;4.78;2.40;;;;;;;2.67;80.71;99136.25;2549282;29;20051;-80
2021/12/19 06:03:03;;;;;;;4.80;2.50;;;;;;;2.70;80.38;99143.16;2549580;29;20211;-81
2021/12/19 06:04:18;;;;;;;4.78;2.45;;;;;;;2.71;81.00;99144.91;2551574;29;20043;-80
2021/12/19 06:05:34;;;;;;;3.22;1.80;;;;;;;2.70;80.94;99134.56;2550528;29;20103;-80
2021/12/19 06:06:51;;;;;;;4.32;2.25;;;;;;;2.69;80.89;99128.50;2551324;29;20134;-82
2021/12/19 06:08:06;;;;;;;6.97;2.20;;;;;;;2.70;80.79;99134.56;2550631;29;20098;-81
2021/12/19 06:09:22;;;;;;;3.92;2.25;;;;;;;2.71;80.21;99126.81;2550197;29;20051;-81
2021/12/19 06:10:38;;;;;;;5.57;2.30;;;;;;;2.63;80.49;99131.00;2550594;28;20195;-80
2021/12/19 06:11:53;;;;;;;3.88;2.22;;;;;;;2.62;80.87;99124.94;2550917;28;20136;-81
2021/12/19 06:13:09;;;;;;;4.88;2.38;;;;;;;2.70;80.64;99134.56;2550812;28;20039;-80
2021/12/19 06:14:31;;;;;;;4.82;2.70;;;;;;;2.63;80.62;99134.44;2550182;29;20048;-79
2021/12/19 06:15:50;;;;;;;3.70;2.17;;;;;;;2.60;80.27;99133.56;2550366;29;20047;-80
2021/12/19 06:17:06;;;;;;;4.60;2.47;;;;;;;2.53;80.84;99132.59;2549072;29;20051;-81
2021/12/19 06:18:22;;;;;;;4.05;2.13;;;;;;;2.57;81.14;99129.19;2550174;29;20596;-82
2021/12/19 06:19:39;;;;;;;2.35;1.75;;;;;;;2.58;80.97;99118.00;2549789;28;20047;-80
2021/12/19 06:20:55;;;;;;;4.22;2.45;;;;;;;2.61;80.64;99125.81;2550536;28;20066;-80
2021/12/19 06:22:11;;;;;;;3.20;2.05;;;;;;;2.58;80.57;99119.72;2549019;29;20487;-82
2021/12/19 06:23:27;;;;;;;2.50;2.10;;;;;;;2.59;80.80;99108.56;2551081;28;20086;-80
2021/12/19 06:24:42;;;;;;;2.90;1.75;;;;;;;2.60;80.99;99107.69;2552511;29;20047;-80
2021/12/19 06:25:58;;;;;;;4.90;2.17;;;;;;;2.63;80.45;99108.59;2551365;29;20586;-80
2021/12/19 06:27:13;;;;;;;3.75;2.30;;;;;;;2.62;80.49;99104.28;2549007;29;20063;-81
2021/12/19 06:28:30;;;;;;;6.82;2.28;;;;;;;2.62;80.63;99111.16;2551879;29;20071;-80
2021/12/19 06:29:46;;;;;;;5.07;2.20;;;;;;;2.63;80.60;99107.75;2551111;29;20051;-80
2021/12/19 06:31:02;;;;;;;4.45;2.22;;;;;;;2.62;80.50;99106.00;2550990;29;20055;-80
2021/12/19 06:32:18;;;;;;;5.47;2.60;;;;;;;2.60;80.27;99099.94;2550815;29;20047;-80
2021/12/19 06:33:34;;;;;;;5.00;2.60;;;;;;;2.60;80.41;99110.28;2551612;29;20060;-80
2021/12/19 06:34:50;;;;;;;4.10;2.55;;;;;;;2.53;80.64;99096.41;2549512;29;20054;-79
2021/12/19 06:36:05;;;;;;;3.28;1.60;;;;;;;2.61;80.16;99102.53;2551287;29;20062;-80
2021/12/19 06:37:21;;;;;;;5.60;2.40;;;;;;;2.62;80.22;99095.66;2549756;28;20055;-81
2021/12/19 06:38:36;;;;;;;3.22;2.25;;;;;;;2.66;80.29;99100.91;2551089;29;20063;-79
2021/12/19 06:39:52;;;;;;;4.07;1.75;;;;;;;2.71;79.89;99095.78;2550757;29;20063;-81
2021/12/19 06:41:08;;;;;;;4.53;2.30;;;;;;;2.70;79.87;99099.22;2549770;29;20058;-80
2021/12/19 06:42:23;;;;;;;3.70;2.60;;;;;;;2.66;79.75;99098.31;2549923;28;20235;-80
2021/12/19 06:43:39;;;;;;;5.15;2.60;;;;;;;2.62;80.16;99093.06;2552798;29;20217;-80
2021/12/19 06:44:54;;;;;;;3.17;2.15;;;;;;;2.65;79.76;99087.94;2550953;29;20063;-81
2021/12/19 06:46:10;;;;;;;4.07;2.42;;;;;;;2.65;79.71;99075.00;2549839;29;20458;-80
2021/12/19 06:47:26;;;;;;;3.63;2.50;;;;;;;2.67;79.71;99081.97;2550154;29;20421;-80
2021/12/19 06:48:42;;;;;;;5.13;3.13;;;;;;;2.66;79.62;99071.59;2549181;29;20059;-80
2021/12/19 06:49:57;;;;;;;4.38;2.15;;;;;;;2.64;79.69;99070.69;2552685;29;20047;-80
2021/12/19 06:51:13;;;;;;;3.88;2.38;;;;;;;2.65;79.55;99067.25;2550096;28;20102;-80
2021/12/19 06:52:29;;;;;;;2.30;1.70;;;;;;;2.66;79.61;99069.88;2549637;29;20414;-80
2021/12/19 06:53:44;;;;;;;4.45;2.70;;;;;;;2.71;79.38;99072.50;2550992;29;20867;-84
2021/12/19 06:55:00;;;;;;;5.05;2.78;;;;;;;2.67;79.31;99076.78;2552038;29;20059;-80
2021/12/19 06:56:16;;;;;;;4.32;2.40;;;;;;;2.63;79.06;99085.31;2551326;29;20074;-79
2021/12/19 06:57:32;;;;;;;4.18;2.65;;;;;;;2.63;79.47;99084.47;2549313;29;20131;-81
2021/12/19 06:58:48;;;;;;;4.72;2.42;;;;;;;2.50;79.54;99091.16;2552786;29;20055;-80
2021/12/19 07:00:16;;;;;;;3.85;2.53;;;;;;;2.56;79.47;99093.84;2550915;29;20059;-80
2021/12/19 07:01:32;;;;;;;5.90;2.15;;;;;;;2.59;79.69;99096.47;2550605;29;20078;-80
2021/12/19 07:02:48;;;;;;;4.45;1.98;;;;;;;2.59;79.56;99098.22;2550366;29;20473;-80
2021/12/19 07:04:05;;;;;;;3.75;2.42;;;;;;;2.64;79.02;99101.72;2549515;29;20059;-79
2021/12/19 07:05:21;;;;;;;3.22;2.40;;;;;;;2.60;78.69;99102.53;2550790;29;20570;-80
2021/12/19 07:06:37;;;;;;;4.45;2.20;;;;;;;2.57;79.04;99097.28;2550605;29;20052;-81
2021/12/19 07:07:53;;;;;;;7.00;1.88;;;;;;;2.51;79.50;99086.03;2551579;29;20186;-82
2021/12/19 07:09:09;;;;;;;1.98;1.63;;;;;;;2.53;79.63;99080.88;2551267;29;20062;-82
2021/12/19 07:10:24;;;;;;;4.28;2.58;;;;;;;2.53;79.45;99086.06;2550741;29;20417;-80
2021/12/19 07:11:40;;;;;;;4.53;2.90;;;;;;;2.57;79.28;99082.66;2552047;28;20134;-79